PWSweather.com
Personal Weather Stations
Station Observations
WXGLH1124
Southern Oaks, Indianapolis, IN 46217

Southern OaksIndianapolis, IN 46217

Lat: 39.65113, Lon: -86.16866

Elevation: 720

Station Type: Vantage Pro2

High Low Average
Temperature 38.5°F3.6°C 26.9°F-2.8°C 33.5°F0.8°C
Dew Point 31.8°F-0.1°C 24.0°F-4.4°C 27.7°F-2.4°C
Winds 7.0 mph 11.3 kmh Calm Calm 1.0 mph SW1.6 kmh SW
Wind Gusts 11.0 mph17.7 kmh -- 3.0 mph4.8 kmh
Humidity 90% 65% 79%
Pressure 30.28 in1025.4 mb 30.10 in1019.3 mb -
Precipitation 0.00 in0.0 mm - -
Hour Temp Dew Point Humidity Winds Wind Gusts Pressure Precip Precip Rate Daily Precip Total
12:05 AM 32.0°F0.0°C 26.8°F-2.9°C 81% 4.0 mph SW6.4 kmh SW 11.0 mph17.7 kmh 30.29 in1025.7 mb 0.00 in0.0 mm 0.00 in0.0 mm 0.00 in0.0 mm
12:10 AM 32.0°F0.0°C 26.8°F-2.9°C 81% 4.0 mph SW6.4 kmh SW 12.0 mph19.3 kmh 30.29 in1025.7 mb 0.00 in0.0 mm 0.00 in0.0 mm 0.00 in0.0 mm
12:15 AM 31.9°F-0.1°C 26.7°F-2.9°C 81% 4.0 mph WSW6.4 kmh WSW 11.0 mph17.7 kmh 30.30 in1026.1 mb 0.00 in0.0 mm 0.00 in0.0 mm 0.00 in0.0 mm
12:20 AM 32.0°F0.0°C 26.8°F-2.9°C 81% 4.0 mph SW6.4 kmh SW 9.0 mph14.5 kmh 30.29 in1025.7 mb 0.00 in0.0 mm 0.00 in0.0 mm 0.00 in0.0 mm
12:25 AM 31.9°F-0.1°C 27.0°F-2.8°C 82% 3.0 mph SW4.8 kmh SW 9.0 mph14.5 kmh 30.29 in1025.7 mb 0.00 in0.0 mm 0.00 in0.0 mm 0.00 in0.0 mm
12:30 AM 31.9°F-0.1°C 27.0°F-2.8°C 82% 3.0 mph SW4.8 kmh SW 9.0 mph14.5 kmh 30.29 in1025.7 mb 0.00 in0.0 mm 0.00 in0.0 mm 0.00 in0.0 mm
12:35 AM 31.9°F-0.1°C 27.0°F-2.8°C 82% Calm Calm 7.0 mph11.3 kmh 30.29 in1025.7 mb 0.00 in0.0 mm 0.00 in0.0 mm 0.00 in0.0 mm
12:40 AM 31.9°F-0.1°C 27.0°F-2.8°C 82% 3.0 mph NW4.8 kmh NW 4.0 mph6.4 kmh 30.29 in1025.7 mb 0.00 in0.0 mm 0.00 in0.0 mm 0.00 in0.0 mm
12:45 AM 31.9°F-0.1°C 27.0°F-2.8°C 82% 4.0 mph SW6.4 kmh SW 8.0 mph12.9 kmh 30.29 in1025.7 mb 0.00 in0.0 mm 0.00 in0.0 mm 0.00 in0.0 mm
12:49 AM 31.9°F-0.1°C 27.0°F-2.8°C 82% 5.0 mph SW8.0 kmh SW 9.0 mph14.5 kmh 30.28 in1025.4 mb 0.00 in0.0 mm 0.00 in0.0 mm 0.00 in0.0 mm
12:55 AM 31.8°F-0.1°C 26.9°F-2.8°C 82% 4.0 mph SW6.4 kmh SW 10.0 mph16.1 kmh 30.28 in1025.4 mb 0.00 in0.0 mm 0.00 in0.0 mm 0.00 in0.0 mm
01:00 AM 31.8°F-0.1°C 26.9°F-2.8°C 82% 1.0 mph SW1.6 kmh SW 6.0 mph9.7 kmh 30.28 in1025.4 mb 0.00 in0.0 mm 0.00 in0.0 mm 0.00 in0.0 mm
01:05 AM 31.8°F-0.1°C 26.9°F-2.8°C 82% 2.0 mph WSW3.2 kmh WSW 5.0 mph8.0 kmh 30.28 in1025.4 mb 0.00 in0.0 mm 0.00 in0.0 mm 0.00 in0.0 mm
01:10 AM 31.8°F-0.1°C 26.9°F-2.8°C 82% 3.0 mph WSW4.8 kmh WSW 6.0 mph9.7 kmh 30.27 in1025.1 mb 0.00 in0.0 mm 0.00 in0.0 mm 0.00 in0.0 mm
01:15 AM 31.8°F-0.1°C 26.9°F-2.8°C 82% 3.0 mph SW4.8 kmh SW 9.0 mph14.5 kmh 30.27 in1025.1 mb 0.00 in0.0 mm 0.00 in0.0 mm 0.00 in0.0 mm
01:20 AM 31.8°F-0.1°C 26.9°F-2.8°C 82% Calm Calm 6.0 mph9.7 kmh 30.27 in1025.1 mb 0.00 in0.0 mm 0.00 in0.0 mm 0.00 in0.0 mm
01:25 AM 31.8°F-0.1°C 26.9°F-2.8°C 82% 2.0 mph SW3.2 kmh SW 4.0 mph6.4 kmh 30.28 in1025.4 mb 0.00 in0.0 mm 0.00 in0.0 mm 0.00 in0.0 mm
01:30 AM 31.8°F-0.1°C 26.9°F-2.8°C 82% 2.0 mph SW3.2 kmh SW 6.0 mph9.7 kmh 30.28 in1025.4 mb 0.00 in0.0 mm 0.00 in0.0 mm 0.00 in0.0 mm
01:34 AM 31.8°F-0.1°C 26.9°F-2.8°C 82% 4.0 mph WSW6.4 kmh WSW 11.0 mph17.7 kmh 30.27 in1025.1 mb 0.00 in0.0 mm 0.00 in0.0 mm 0.00 in0.0 mm
01:40 AM 31.8°F-0.1°C 26.9°F-2.8°C 82% 4.0 mph SW6.4 kmh SW 7.0 mph11.3 kmh 30.28 in1025.4 mb 0.00 in0.0 mm 0.00 in0.0 mm 0.00 in0.0 mm
01:45 AM 31.7°F-0.2°C 26.8°F-2.9°C 82% 1.0 mph WSW1.6 kmh WSW 6.0 mph9.7 kmh 30.27 in1025.1 mb 0.00 in0.0 mm 0.00 in0.0 mm 0.00 in0.0 mm
01:50 AM 31.7°F-0.2°C 26.8°F-2.9°C 82% 3.0 mph SW4.8 kmh SW 6.0 mph9.7 kmh 30.27 in1025.1 mb 0.00 in0.0 mm 0.00 in0.0 mm 0.00 in0.0 mm
01:55 AM 31.7°F-0.2°C 26.8°F-2.9°C 82% 5.0 mph SW8.0 kmh SW 6.0 mph9.7 kmh 30.27 in1025.1 mb 0.00 in0.0 mm 0.00 in0.0 mm 0.00 in0.0 mm
02:00 AM 31.7°F-0.2°C 26.8°F-2.9°C 82% 4.0 mph SW6.4 kmh SW 5.0 mph8.0 kmh 30.27 in1025.1 mb 0.00 in0.0 mm 0.00 in0.0 mm 0.00 in0.0 mm
02:05 AM 31.7°F-0.2°C 27.1°F-2.7°C 83% 2.0 mph W3.2 kmh W 4.0 mph6.4 kmh 30.28 in1025.4 mb 0.00 in0.0 mm 0.00 in0.0 mm 0.00 in0.0 mm
02:10 AM 31.7°F-0.2°C 27.1°F-2.7°C 83% Calm Calm 5.0 mph8.0 kmh 30.28 in1025.4 mb 0.00 in0.0 mm 0.00 in0.0 mm 0.00 in0.0 mm
02:14 AM 31.7°F-0.2°C 27.1°F-2.7°C 83% Calm Calm 1.0 mph1.6 kmh 30.28 in1025.4 mb 0.00 in0.0 mm 0.00 in0.0 mm 0.00 in0.0 mm
02:19 AM 31.7°F-0.2°C 27.1°F-2.7°C 83% 2.0 mph W3.2 kmh W 3.0 mph4.8 kmh 30.27 in1025.1 mb 0.00 in0.0 mm 0.00 in0.0 mm 0.00 in0.0 mm
02:25 AM 31.7°F-0.2°C 27.1°F-2.7°C 83% 2.0 mph WSW3.2 kmh WSW 6.0 mph9.7 kmh 30.27 in1025.1 mb 0.00 in0.0 mm 0.00 in0.0 mm 0.00 in0.0 mm
02:30 AM 31.6°F-0.2°C 27.0°F-2.8°C 83% 5.0 mph SW8.0 kmh SW 7.0 mph11.3 kmh 30.26 in1024.7 mb 0.00 in0.0 mm 0.00 in0.0 mm 0.00 in0.0 mm
02:35 AM 31.5°F-0.3°C 26.9°F-2.8°C 83% 6.0 mph SW9.7 kmh SW 7.0 mph11.3 kmh 30.26 in1024.7 mb 0.00 in0.0 mm 0.00 in0.0 mm 0.00 in0.0 mm
02:40 AM 31.5°F-0.3°C 26.9°F-2.8°C 83% 3.0 mph SW4.8 kmh SW 5.0 mph8.0 kmh 30.26 in1024.7 mb 0.00 in0.0 mm 0.00 in0.0 mm 0.00 in0.0 mm
02:45 AM 31.5°F-0.3°C 26.9°F-2.8°C 83% 2.0 mph SW3.2 kmh SW 4.0 mph6.4 kmh 30.27 in1025.1 mb 0.00 in0.0 mm 0.00 in0.0 mm 0.00 in0.0 mm
02:50 AM 31.5°F-0.3°C 26.9°F-2.8°C 83% 6.0 mph SW9.7 kmh SW 6.0 mph9.7 kmh 30.27 in1025.1 mb 0.00 in0.0 mm 0.00 in0.0 mm 0.00 in0.0 mm
02:55 AM 31.5°F-0.3°C 26.9°F-2.8°C 83% 5.0 mph SW8.0 kmh SW 6.0 mph9.7 kmh 30.26 in1024.7 mb 0.00 in0.0 mm 0.00 in0.0 mm 0.00 in0.0 mm
03:00 AM 31.5°F-0.3°C 26.9°F-2.8°C 83% Calm Calm 5.0 mph8.0 kmh 30.26 in1024.7 mb 0.00 in0.0 mm 0.00 in0.0 mm 0.00 in0.0 mm
03:04 AM 31.5°F-0.3°C 26.9°F-2.8°C 83% Calm Calm 4.0 mph6.4 kmh 30.26 in1024.7 mb 0.00 in0.0 mm 0.00 in0.0 mm 0.00 in0.0 mm
03:10 AM 31.5°F-0.3°C 26.9°F-2.8°C 83% 2.0 mph SW3.2 kmh SW 6.0 mph9.7 kmh 30.27 in1025.1 mb 0.00 in0.0 mm 0.00 in0.0 mm 0.00 in0.0 mm
03:15 AM 31.4°F-0.3°C 26.8°F-2.9°C 83% Calm Calm 6.0 mph9.7 kmh 30.27 in1025.1 mb 0.00 in0.0 mm 0.00 in0.0 mm 0.00 in0.0 mm
03:20 AM 31.4°F-0.3°C 26.8°F-2.9°C 83% Calm Calm 9.0 mph14.5 kmh 30.27 in1025.1 mb 0.00 in0.0 mm 0.00 in0.0 mm 0.00 in0.0 mm
03:25 AM 31.4°F-0.3°C 26.8°F-2.9°C 83% 3.0 mph SW4.8 kmh SW 5.0 mph8.0 kmh 30.27 in1025.1 mb 0.00 in0.0 mm 0.00 in0.0 mm 0.00 in0.0 mm
03:30 AM 31.3°F-0.4°C 26.8°F-2.9°C 83% 3.0 mph SW4.8 kmh SW 7.0 mph11.3 kmh 30.27 in1025.1 mb 0.00 in0.0 mm 0.00 in0.0 mm 0.00 in0.0 mm
03:35 AM 31.3°F-0.4°C 26.8°F-2.9°C 83% Calm Calm 9.0 mph14.5 kmh 30.27 in1025.1 mb 0.00 in0.0 mm 0.00 in0.0 mm 0.00 in0.0 mm
03:40 AM 31.2°F-0.4°C 26.7°F-2.9°C 83% Calm Calm 6.0 mph9.7 kmh 30.27 in1025.1 mb 0.00 in0.0 mm 0.00 in0.0 mm 0.00 in0.0 mm
03:45 AM 31.1°F-0.5°C 26.6°F-3.0°C 83% 5.0 mph WSW8.0 kmh WSW 6.0 mph9.7 kmh 30.27 in1025.1 mb 0.00 in0.0 mm 0.00 in0.0 mm 0.00 in0.0 mm
03:50 AM 31.1°F-0.5°C 26.6°F-3.0°C 83% 6.0 mph SW9.7 kmh SW 7.0 mph11.3 kmh 30.28 in1025.4 mb 0.00 in0.0 mm 0.00 in0.0 mm 0.00 in0.0 mm
03:55 AM 31.1°F-0.5°C 26.6°F-3.0°C 83% 3.0 mph WSW4.8 kmh WSW 9.0 mph14.5 kmh 30.28 in1025.4 mb 0.00 in0.0 mm 0.00 in0.0 mm 0.00 in0.0 mm
04:00 AM 31.0°F-0.6°C 26.5°F-3.1°C 83% 4.0 mph SW6.4 kmh SW 4.0 mph6.4 kmh 30.27 in1025.1 mb 0.00 in0.0 mm 0.00 in0.0 mm 0.00 in0.0 mm
04:05 AM 31.0°F-0.6°C 26.5°F-3.1°C 83% 3.0 mph SW4.8 kmh SW 4.0 mph6.4 kmh 30.27 in1025.1 mb 0.00 in0.0 mm 0.00 in0.0 mm 0.00 in0.0 mm
04:10 AM 30.9°F-0.6°C 26.4°F-3.1°C 83% Calm Calm 2.0 mph3.2 kmh 30.27 in1025.1 mb 0.00 in0.0 mm 0.00 in0.0 mm 0.00 in0.0 mm
04:15 AM 30.9°F-0.6°C 26.4°F-3.1°C 83% Calm Calm 2.0 mph3.2 kmh 30.28 in1025.4 mb 0.00 in0.0 mm 0.00 in0.0 mm 0.00 in0.0 mm
04:20 AM 30.9°F-0.6°C 26.4°F-3.1°C 83% Calm Calm 3.0 mph4.8 kmh 30.28 in1025.4 mb 0.00 in0.0 mm 0.00 in0.0 mm 0.00 in0.0 mm
04:25 AM 30.9°F-0.6°C 26.6°F-3.0°C 84% 1.0 mph W1.6 kmh W 3.0 mph4.8 kmh 30.28 in1025.4 mb 0.00 in0.0 mm 0.00 in0.0 mm 0.00 in0.0 mm
04:30 AM 30.9°F-0.6°C 26.6°F-3.0°C 84% Calm Calm 2.0 mph3.2 kmh 30.28 in1025.4 mb 0.00 in0.0 mm 0.00 in0.0 mm 0.00 in0.0 mm
04:34 AM 30.9°F-0.6°C 26.6°F-3.0°C 84% Calm Calm 1.0 mph1.6 kmh 30.28 in1025.4 mb 0.00 in0.0 mm 0.00 in0.0 mm 0.00 in0.0 mm
04:40 AM 30.9°F-0.6°C 26.6°F-3.0°C 84% 1.0 mph W1.6 kmh W 1.0 mph1.6 kmh 30.28 in1025.4 mb 0.00 in0.0 mm 0.00 in0.0 mm 0.00 in0.0 mm
04:45 AM 30.9°F-0.6°C 26.6°F-3.0°C 84% 1.0 mph SW1.6 kmh SW 4.0 mph6.4 kmh 30.28 in1025.4 mb 0.00 in0.0 mm 0.00 in0.0 mm 0.00 in0.0 mm
04:49 AM 30.8°F-0.7°C 26.6°F-3.0°C 84% 2.0 mph SW3.2 kmh SW 6.0 mph9.7 kmh 30.27 in1025.1 mb 0.00 in0.0 mm 0.00 in0.0 mm 0.00 in0.0 mm
04:55 AM 30.8°F-0.7°C 26.6°F-3.0°C 84% Calm Calm 5.0 mph8.0 kmh 30.27 in1025.1 mb 0.00 in0.0 mm 0.00 in0.0 mm 0.00 in0.0 mm
05:00 AM 30.8°F-0.7°C 26.6°F-3.0°C 84% 4.0 mph WNW6.4 kmh WNW 6.0 mph9.7 kmh 30.27 in1025.1 mb 0.00 in0.0 mm 0.00 in0.0 mm 0.00 in0.0 mm
05:05 AM 30.8°F-0.7°C 26.6°F-3.0°C 84% Calm Calm 3.0 mph4.8 kmh 30.27 in1025.1 mb 0.00 in0.0 mm 0.00 in0.0 mm 0.00 in0.0 mm
05:10 AM 30.8°F-0.7°C 26.6°F-3.0°C 84% Calm Calm 4.0 mph6.4 kmh 30.27 in1025.1 mb 0.00 in0.0 mm 0.00 in0.0 mm 0.00 in0.0 mm
05:15 AM 30.8°F-0.7°C 26.6°F-3.0°C 84% Calm Calm 1.0 mph1.6 kmh 30.27 in1025.1 mb 0.00 in0.0 mm 0.00 in0.0 mm 0.00 in0.0 mm
05:20 AM 30.7°F-0.7°C 26.5°F-3.1°C 84% Calm Calm 3.0 mph4.8 kmh 30.26 in1024.7 mb 0.00 in0.0 mm 0.00 in0.0 mm 0.00 in0.0 mm
05:25 AM 30.5°F-0.8°C 26.3°F-3.2°C 84% Calm Calm 4.0 mph6.4 kmh 30.26 in1024.7 mb 0.00 in0.0 mm 0.00 in0.0 mm 0.00 in0.0 mm
05:30 AM 30.5°F-0.8°C 26.3°F-3.2°C 84% Calm Calm -- 30.25 in1024.4 mb 0.00 in0.0 mm 0.00 in0.0 mm 0.00 in0.0 mm
05:35 AM 30.3°F-0.9°C 26.1°F-3.3°C 84% Calm Calm -- 30.25 in1024.4 mb 0.00 in0.0 mm 0.00 in0.0 mm 0.00 in0.0 mm
05:40 AM 30.2°F-1.0°C 26.0°F-3.3°C 84% Calm Calm 2.0 mph3.2 kmh 30.25 in1024.4 mb 0.00 in0.0 mm 0.00 in0.0 mm 0.00 in0.0 mm
05:45 AM 30.1°F-1.1°C 25.9°F-3.4°C 84% Calm Calm -- 30.25 in1024.4 mb 0.00 in0.0 mm 0.00 in0.0 mm 0.00 in0.0 mm
05:50 AM 29.9°F-1.2°C 25.7°F-3.5°C 84% Calm Calm -- 30.25 in1024.4 mb 0.00 in0.0 mm 0.00 in0.0 mm 0.00 in0.0 mm
05:55 AM 29.7°F-1.3°C 25.5°F-3.6°C 84% Calm Calm 1.0 mph1.6 kmh 30.25 in1024.4 mb 0.00 in0.0 mm 0.00 in0.0 mm 0.00 in0.0 mm
06:00 AM 29.6°F-1.3°C 25.7°F-3.5°C 85% Calm Calm -- 30.25 in1024.4 mb 0.00 in0.0 mm 0.00 in0.0 mm 0.00 in0.0 mm
06:05 AM 29.5°F-1.4°C 25.6°F-3.6°C 85% Calm Calm -- 30.24 in1024.0 mb 0.00 in0.0 mm 0.00 in0.0 mm 0.00 in0.0 mm
06:10 AM 29.4°F-1.4°C 25.5°F-3.6°C 85% Calm Calm -- 30.24 in1024.0 mb 0.00 in0.0 mm 0.00 in0.0 mm 0.00 in0.0 mm
06:15 AM 29.3°F-1.5°C 25.4°F-3.7°C 85% Calm Calm -- 30.24 in1024.0 mb 0.00 in0.0 mm 0.00 in0.0 mm 0.00 in0.0 mm
06:20 AM 29.2°F-1.6°C 25.3°F-3.7°C 85% Calm Calm -- 30.23 in1023.7 mb 0.00 in0.0 mm 0.00 in0.0 mm 0.00 in0.0 mm
06:25 AM 29.1°F-1.6°C 25.2°F-3.8°C 85% Calm Calm -- 30.23 in1023.7 mb 0.00 in0.0 mm 0.00 in0.0 mm 0.00 in0.0 mm
06:30 AM 29.0°F-1.7°C 25.4°F-3.7°C 86% Calm Calm -- 30.23 in1023.7 mb 0.00 in0.0 mm 0.00 in0.0 mm 0.00 in0.0 mm
06:35 AM 28.9°F-1.7°C 25.3°F-3.7°C 86% Calm Calm -- 30.23 in1023.7 mb 0.00 in0.0 mm 0.00 in0.0 mm 0.00 in0.0 mm
06:40 AM 28.7°F-1.8°C 25.1°F-3.8°C 86% Calm Calm -- 30.23 in1023.7 mb 0.00 in0.0 mm 0.00 in0.0 mm 0.00 in0.0 mm
06:45 AM 28.6°F-1.9°C 25.0°F-3.9°C 86% Calm Calm -- 30.23 in1023.7 mb 0.00 in0.0 mm 0.00 in0.0 mm 0.00 in0.0 mm
06:50 AM 28.4°F-2.0°C 24.8°F-4.0°C 86% Calm Calm -- 30.22 in1023.4 mb 0.00 in0.0 mm 0.00 in0.0 mm 0.00 in0.0 mm
06:54 AM 28.3°F-2.1°C 24.7°F-4.1°C 86% Calm Calm -- 30.23 in1023.7 mb 0.00 in0.0 mm 0.00 in0.0 mm 0.00 in0.0 mm
07:00 AM 28.1°F-2.2°C 24.5°F-4.2°C 86% Calm Calm -- 30.23 in1023.7 mb 0.00 in0.0 mm 0.00 in0.0 mm 0.00 in0.0 mm
07:04 AM 28.0°F-2.2°C 24.4°F-4.2°C 86% Calm Calm -- 30.24 in1024.0 mb 0.00 in0.0 mm 0.00 in0.0 mm 0.00 in0.0 mm
07:10 AM 27.9°F-2.3°C 24.3°F-4.3°C 86% Calm Calm -- 30.23 in1023.7 mb 0.00 in0.0 mm 0.00 in0.0 mm 0.00 in0.0 mm
07:15 AM 27.8°F-2.3°C 24.4°F-4.2°C 87% Calm Calm -- 30.23 in1023.7 mb 0.00 in0.0 mm 0.00 in0.0 mm 0.00 in0.0 mm
07:20 AM 27.7°F-2.4°C 24.3°F-4.3°C 87% Calm Calm -- 30.23 in1023.7 mb 0.00 in0.0 mm 0.00 in0.0 mm 0.00 in0.0 mm
07:25 AM 27.6°F-2.4°C 24.2°F-4.3°C 87% Calm Calm -- 30.24 in1024.0 mb 0.00 in0.0 mm 0.00 in0.0 mm 0.00 in0.0 mm
07:30 AM 27.5°F-2.5°C 24.2°F-4.3°C 87% Calm Calm -- 30.24 in1024.0 mb 0.00 in0.0 mm 0.00 in0.0 mm 0.00 in0.0 mm
07:35 AM 27.4°F-2.6°C 24.1°F-4.4°C 87% Calm Calm -- 30.24 in1024.0 mb 0.00 in0.0 mm 0.00 in0.0 mm 0.00 in0.0 mm
07:40 AM 27.3°F-2.6°C 24.0°F-4.4°C 87% Calm Calm -- 30.24 in1024.0 mb 0.00 in0.0 mm 0.00 in0.0 mm 0.00 in0.0 mm
07:44 AM 27.2°F-2.7°C 24.1°F-4.4°C 88% Calm Calm -- 30.24 in1024.0 mb 0.00 in0.0 mm 0.00 in0.0 mm 0.00 in0.0 mm
07:50 AM 27.2°F-2.7°C 24.1°F-4.4°C 88% Calm Calm -- 30.24 in1024.0 mb 0.00 in0.0 mm 0.00 in0.0 mm 0.00 in0.0 mm
07:55 AM 27.2°F-2.7°C 24.1°F-4.4°C 88% Calm Calm -- 30.24 in1024.0 mb 0.00 in0.0 mm 0.00 in0.0 mm 0.00 in0.0 mm
08:00 AM 27.2°F-2.7°C 24.1°F-4.4°C 88% Calm Calm -- 30.24 in1024.0 mb 0.00 in0.0 mm 0.00 in0.0 mm 0.00 in0.0 mm
08:05 AM 27.3°F-2.6°C 24.5°F-4.2°C 89% Calm Calm -- 30.24 in1024.0 mb 0.00 in0.0 mm 0.00 in0.0 mm 0.00 in0.0 mm
08:09 AM 27.4°F-2.6°C 24.6°F-4.1°C 89% Calm Calm -- 30.24 in1024.0 mb 0.00 in0.0 mm 0.00 in0.0 mm 0.00 in0.0 mm
08:14 AM 27.5°F-2.5°C 24.7°F-4.1°C 89% Calm Calm -- 30.24 in1024.0 mb 0.00 in0.0 mm 0.00 in0.0 mm 0.00 in0.0 mm
08:20 AM 27.6°F-2.4°C 24.8°F-4.0°C 89% Calm Calm -- 30.24 in1024.0 mb 0.00 in0.0 mm 0.00 in0.0 mm 0.00 in0.0 mm
08:25 AM 27.6°F-2.4°C 24.8°F-4.0°C 89% Calm Calm -- 30.25 in1024.4 mb 0.00 in0.0 mm 0.00 in0.0 mm 0.00 in0.0 mm
08:30 AM 27.5°F-2.5°C 24.7°F-4.1°C 89% Calm Calm -- 30.25 in1024.4 mb 0.00 in0.0 mm 0.00 in0.0 mm 0.00 in0.0 mm
08:35 AM 27.4°F-2.6°C 24.6°F-4.1°C 89% Calm Calm -- 30.25 in1024.4 mb 0.00 in0.0 mm 0.00 in0.0 mm 0.00 in0.0 mm
08:40 AM 27.4°F-2.6°C 24.6°F-4.1°C 89% Calm Calm -- 30.25 in1024.4 mb 0.00 in0.0 mm 0.00 in0.0 mm 0.00 in0.0 mm
08:44 AM 27.2°F-2.7°C 24.4°F-4.2°C 89% Calm Calm -- 30.26 in1024.7 mb 0.00 in0.0 mm 0.00 in0.0 mm 0.00 in0.0 mm
08:50 AM 27.1°F-2.7°C 24.3°F-4.3°C 89% Calm Calm -- 30.25 in1024.4 mb 0.00 in0.0 mm 0.00 in0.0 mm 0.00 in0.0 mm
08:55 AM 27.0°F-2.8°C 24.2°F-4.3°C 89% Calm Calm -- 30.25 in1024.4 mb 0.00 in0.0 mm 0.00 in0.0 mm 0.00 in0.0 mm
08:59 AM 27.0°F-2.8°C 24.2°F-4.3°C 89% Calm Calm -- 30.25 in1024.4 mb 0.00 in0.0 mm 0.00 in0.0 mm 0.00 in0.0 mm
09:05 AM 26.9°F-2.8°C 24.1°F-4.4°C 89% Calm Calm -- 30.25 in1024.4 mb 0.00 in0.0 mm 0.00 in0.0 mm 0.00 in0.0 mm
09:10 AM 26.9°F-2.8°C 24.1°F-4.4°C 89% Calm Calm -- 30.25 in1024.4 mb 0.00 in0.0 mm 0.00 in0.0 mm 0.00 in0.0 mm
09:15 AM 26.9°F-2.8°C 24.1°F-4.4°C 89% Calm Calm -- 30.25 in1024.4 mb 0.00 in0.0 mm 0.00 in0.0 mm 0.00 in0.0 mm
09:20 AM 27.0°F-2.8°C 24.2°F-4.3°C 89% Calm Calm -- 30.25 in1024.4 mb 0.00 in0.0 mm 0.00 in0.0 mm 0.00 in0.0 mm
09:25 AM 27.0°F-2.8°C 24.2°F-4.3°C 89% Calm Calm -- 30.25 in1024.4 mb 0.00 in0.0 mm 0.00 in0.0 mm 0.00 in0.0 mm
09:30 AM 27.1°F-2.7°C 24.6°F-4.1°C 90% Calm Calm -- 30.27 in1025.1 mb 0.00 in0.0 mm 0.00 in0.0 mm 0.00 in0.0 mm
09:35 AM 27.0°F-2.8°C 24.5°F-4.2°C 90% Calm Calm -- 30.26 in1024.7 mb 0.00 in0.0 mm 0.00 in0.0 mm 0.00 in0.0 mm
09:39 AM 27.1°F-2.7°C 24.6°F-4.1°C 90% Calm Calm -- 30.26 in1024.7 mb 0.00 in0.0 mm 0.00 in0.0 mm 0.00 in0.0 mm
09:44 AM 27.2°F-2.7°C 24.7°F-4.1°C 90% Calm Calm -- 30.26 in1024.7 mb 0.00 in0.0 mm 0.00 in0.0 mm 0.00 in0.0 mm
09:50 AM 27.4°F-2.6°C 24.9°F-3.9°C 90% Calm Calm 1.0 mph1.6 kmh 30.26 in1024.7 mb 0.00 in0.0 mm 0.00 in0.0 mm 0.00 in0.0 mm
09:55 AM 27.6°F-2.4°C 25.1°F-3.8°C 90% Calm Calm -- 30.26 in1024.7 mb 0.00 in0.0 mm 0.00 in0.0 mm 0.00 in0.0 mm
10:00 AM 27.8°F-2.3°C 25.3°F-3.7°C 90% Calm Calm -- 30.25 in1024.4 mb 0.00 in0.0 mm 0.00 in0.0 mm 0.00 in0.0 mm
10:05 AM 28.0°F-2.2°C 25.5°F-3.6°C 90% Calm Calm -- 30.26 in1024.7 mb 0.00 in0.0 mm 0.00 in0.0 mm 0.00 in0.0 mm
10:10 AM 28.1°F-2.2°C 25.6°F-3.6°C 90% Calm Calm -- 30.26 in1024.7 mb 0.00 in0.0 mm 0.00 in0.0 mm 0.00 in0.0 mm
10:15 AM 28.3°F-2.1°C 25.8°F-3.4°C 90% Calm Calm 1.0 mph1.6 kmh 30.26 in1024.7 mb 0.00 in0.0 mm 0.00 in0.0 mm 0.00 in0.0 mm
10:20 AM 28.4°F-2.0°C 25.9°F-3.4°C 90% Calm Calm 1.0 mph1.6 kmh 30.25 in1024.4 mb 0.00 in0.0 mm 0.00 in0.0 mm 0.00 in0.0 mm
10:24 AM 28.6°F-1.9°C 26.1°F-3.3°C 90% Calm Calm 2.0 mph3.2 kmh 30.25 in1024.4 mb 0.00 in0.0 mm 0.00 in0.0 mm 0.00 in0.0 mm
10:30 AM 28.8°F-1.8°C 26.2°F-3.2°C 90% Calm Calm 2.0 mph3.2 kmh 30.25 in1024.4 mb 0.00 in0.0 mm 0.00 in0.0 mm 0.00 in0.0 mm
10:35 AM 29.0°F-1.7°C 26.4°F-3.1°C 90% Calm Calm -- 30.25 in1024.4 mb 0.00 in0.0 mm 0.00 in0.0 mm 0.00 in0.0 mm
10:40 AM 29.2°F-1.6°C 26.6°F-3.0°C 90% Calm Calm -- 30.26 in1024.7 mb 0.00 in0.0 mm 0.00 in0.0 mm 0.00 in0.0 mm
10:45 AM 29.4°F-1.4°C 26.8°F-2.9°C 90% Calm Calm -- 30.26 in1024.7 mb 0.00 in0.0 mm 0.00 in0.0 mm 0.00 in0.0 mm
10:50 AM 29.6°F-1.3°C 27.0°F-2.8°C 90% 2.0 mph W3.2 kmh W 2.0 mph3.2 kmh 30.25 in1024.4 mb 0.00 in0.0 mm 0.00 in0.0 mm 0.00 in0.0 mm
10:55 AM 29.8°F-1.2°C 27.0°F-2.8°C 89% 3.0 mph SW4.8 kmh SW 4.0 mph6.4 kmh 30.26 in1024.7 mb 0.00 in0.0 mm 0.00 in0.0 mm 0.00 in0.0 mm
11:00 AM 30.0°F-1.1°C 27.2°F-2.7°C 89% Calm Calm 4.0 mph6.4 kmh 30.25 in1024.4 mb 0.00 in0.0 mm 0.00 in0.0 mm 0.00 in0.0 mm
11:05 AM 30.2°F-1.0°C 27.4°F-2.6°C 89% 2.0 mph SW3.2 kmh SW 4.0 mph6.4 kmh 30.25 in1024.4 mb 0.00 in0.0 mm 0.00 in0.0 mm 0.00 in0.0 mm
11:09 AM 30.4°F-0.9°C 27.6°F-2.4°C 89% Calm Calm 3.0 mph4.8 kmh 30.25 in1024.4 mb 0.00 in0.0 mm 0.00 in0.0 mm 0.00 in0.0 mm
11:15 AM 30.7°F-0.7°C 27.9°F-2.3°C 89% 1.0 mph SW1.6 kmh SW 4.0 mph6.4 kmh 30.25 in1024.4 mb 0.00 in0.0 mm 0.00 in0.0 mm 0.00 in0.0 mm
11:20 AM 31.0°F-0.6°C 27.9°F-2.3°C 88% 5.0 mph SW8.0 kmh SW 5.0 mph8.0 kmh 30.25 in1024.4 mb 0.00 in0.0 mm 0.00 in0.0 mm 0.00 in0.0 mm
11:25 AM 31.1°F-0.5°C 28.0°F-2.2°C 88% 4.0 mph SSW6.4 kmh SSW 4.0 mph6.4 kmh 30.26 in1024.7 mb 0.00 in0.0 mm 0.00 in0.0 mm 0.00 in0.0 mm
11:30 AM 31.0°F-0.6°C 27.6°F-2.4°C 87% 3.0 mph WSW4.8 kmh WSW 4.0 mph6.4 kmh 30.25 in1024.4 mb 0.00 in0.0 mm 0.00 in0.0 mm 0.00 in0.0 mm
11:35 AM 31.0°F-0.6°C 27.6°F-2.4°C 87% 1.0 mph SW1.6 kmh SW 5.0 mph8.0 kmh 30.25 in1024.4 mb 0.00 in0.0 mm 0.00 in0.0 mm 0.00 in0.0 mm
11:40 AM 31.1°F-0.5°C 27.7°F-2.4°C 87% Calm Calm 5.0 mph8.0 kmh 30.25 in1024.4 mb 0.00 in0.0 mm 0.00 in0.0 mm 0.00 in0.0 mm
11:44 AM 31.2°F-0.4°C 27.5°F-2.5°C 86% 5.0 mph S8.0 kmh S 6.0 mph9.7 kmh 30.25 in1024.4 mb 0.00 in0.0 mm 0.00 in0.0 mm 0.00 in0.0 mm
11:49 AM 31.3°F-0.4°C 27.6°F-2.4°C 86% 7.0 mph SW11.3 kmh SW 7.0 mph11.3 kmh 30.25 in1024.4 mb 0.00 in0.0 mm 0.00 in0.0 mm 0.00 in0.0 mm
11:55 AM 31.5°F-0.3°C 27.8°F-2.3°C 86% 3.0 mph SW4.8 kmh SW 4.0 mph6.4 kmh 30.26 in1024.7 mb 0.00 in0.0 mm 0.00 in0.0 mm 0.00 in0.0 mm
12:00 PM 31.6°F-0.2°C 27.6°F-2.4°C 85% 1.0 mph SW1.6 kmh SW 5.0 mph8.0 kmh 30.25 in1024.4 mb 0.00 in0.0 mm 0.00 in0.0 mm 0.00 in0.0 mm
12:05 PM 31.9°F-0.1°C 27.9°F-2.3°C 85% 3.0 mph SSW4.8 kmh SSW 6.0 mph9.7 kmh 30.25 in1024.4 mb 0.00 in0.0 mm 0.00 in0.0 mm 0.00 in0.0 mm
12:10 PM 32.2°F0.1°C 28.2°F-2.1°C 85% 2.0 mph SW3.2 kmh SW 5.0 mph8.0 kmh 30.25 in1024.4 mb 0.00 in0.0 mm 0.00 in0.0 mm 0.00 in0.0 mm
12:15 PM 32.2°F0.1°C 27.9°F-2.3°C 84% Calm Calm 4.0 mph6.4 kmh 30.24 in1024.0 mb 0.00 in0.0 mm 0.00 in0.0 mm 0.00 in0.0 mm
12:20 PM 32.1°F0.1°C 27.5°F-2.5°C 83% 4.0 mph SW6.4 kmh SW 7.0 mph11.3 kmh 30.24 in1024.0 mb 0.00 in0.0 mm 0.00 in0.0 mm 0.00 in0.0 mm
12:24 PM 32.0°F0.0°C 27.1°F-2.7°C 82% 3.0 mph S4.8 kmh S 6.0 mph9.7 kmh 30.23 in1023.7 mb 0.00 in0.0 mm 0.00 in0.0 mm 0.00 in0.0 mm
12:30 PM 32.2°F0.1°C 27.6°F-2.4°C 83% 4.0 mph S6.4 kmh S 5.0 mph8.0 kmh 30.23 in1023.7 mb 0.00 in0.0 mm 0.00 in0.0 mm 0.00 in0.0 mm
12:35 PM 32.3°F0.2°C 27.4°F-2.6°C 82% 4.0 mph S6.4 kmh S 4.0 mph6.4 kmh 30.23 in1023.7 mb 0.00 in0.0 mm 0.00 in0.0 mm 0.00 in0.0 mm
12:40 PM 32.6°F0.3°C 27.7°F-2.4°C 82% 3.0 mph S4.8 kmh S 4.0 mph6.4 kmh 30.23 in1023.7 mb 0.00 in0.0 mm 0.00 in0.0 mm 0.00 in0.0 mm
12:45 PM 32.8°F0.4°C 27.9°F-2.3°C 82% 3.0 mph SSW4.8 kmh SSW 5.0 mph8.0 kmh 30.22 in1023.4 mb 0.00 in0.0 mm 0.00 in0.0 mm 0.00 in0.0 mm
12:49 PM 33.0°F0.6°C 28.1°F-2.2°C 82% 1.0 mph SW1.6 kmh SW 6.0 mph9.7 kmh 30.22 in1023.4 mb 0.00 in0.0 mm 0.00 in0.0 mm 0.00 in0.0 mm
12:55 PM 33.2°F0.7°C 28.0°F-2.2°C 81% 3.0 mph SW4.8 kmh SW 6.0 mph9.7 kmh 30.22 in1023.4 mb 0.00 in0.0 mm 0.00 in0.0 mm 0.00 in0.0 mm
01:00 PM 33.4°F0.8°C 27.9°F-2.3°C 80% 3.0 mph SW4.8 kmh SW 5.0 mph8.0 kmh 30.22 in1023.4 mb 0.00 in0.0 mm 0.00 in0.0 mm 0.00 in0.0 mm
01:04 PM 33.7°F0.9°C 28.2°F-2.1°C 80% 3.0 mph S4.8 kmh S 6.0 mph9.7 kmh 30.22 in1023.4 mb 0.00 in0.0 mm 0.00 in0.0 mm 0.00 in0.0 mm
01:10 PM 33.6°F0.9°C 27.8°F-2.3°C 79% 2.0 mph SW3.2 kmh SW 5.0 mph8.0 kmh 30.22 in1023.4 mb 0.00 in0.0 mm 0.00 in0.0 mm 0.00 in0.0 mm
01:15 PM 33.5°F0.8°C 27.7°F-2.4°C 79% 3.0 mph SW4.8 kmh SW 5.0 mph8.0 kmh 30.21 in1023.0 mb 0.00 in0.0 mm 0.00 in0.0 mm 0.00 in0.0 mm
01:20 PM 33.5°F0.8°C 27.7°F-2.4°C 79% 2.0 mph SW3.2 kmh SW 4.0 mph6.4 kmh 30.21 in1023.0 mb 0.00 in0.0 mm 0.00 in0.0 mm 0.00 in0.0 mm
01:25 PM 33.8°F1.0°C 28.0°F-2.2°C 79% Calm Calm 5.0 mph8.0 kmh 30.20 in1022.7 mb 0.00 in0.0 mm 0.00 in0.0 mm 0.00 in0.0 mm
01:30 PM 34.0°F1.1°C 28.2°F-2.1°C 79% 5.0 mph SW8.0 kmh SW 5.0 mph8.0 kmh 30.20 in1022.7 mb 0.00 in0.0 mm 0.00 in0.0 mm 0.00 in0.0 mm
01:35 PM 34.3°F1.3°C 28.5°F-1.9°C 79% 3.0 mph SSW4.8 kmh SSW 6.0 mph9.7 kmh 30.20 in1022.7 mb 0.00 in0.0 mm 0.00 in0.0 mm 0.00 in0.0 mm
01:39 PM 34.7°F1.5°C 28.6°F-1.9°C 78% 6.0 mph S9.7 kmh S 7.0 mph11.3 kmh 30.20 in1022.7 mb 0.00 in0.0 mm 0.00 in0.0 mm 0.00 in0.0 mm
01:45 PM 35.1°F1.7°C 28.6°F-1.9°C 77% 3.0 mph SW4.8 kmh SW 6.0 mph9.7 kmh 30.19 in1022.4 mb 0.00 in0.0 mm 0.00 in0.0 mm 0.00 in0.0 mm
01:49 PM 35.1°F1.7°C 28.3°F-2.1°C 76% 3.0 mph SW4.8 kmh SW 4.0 mph6.4 kmh 30.19 in1022.4 mb 0.00 in0.0 mm 0.00 in0.0 mm 0.00 in0.0 mm
01:55 PM 35.3°F1.8°C 28.5°F-1.9°C 76% 3.0 mph SW4.8 kmh SW 5.0 mph8.0 kmh 30.19 in1022.4 mb 0.00 in0.0 mm 0.00 in0.0 mm 0.00 in0.0 mm
02:00 PM 35.4°F1.9°C 28.3°F-2.1°C 75% 3.0 mph SW4.8 kmh SW 7.0 mph11.3 kmh 30.18 in1022.0 mb 0.00 in0.0 mm 0.00 in0.0 mm 0.00 in0.0 mm
02:05 PM 35.7°F2.1°C 28.2°F-2.1°C 74% 2.0 mph S3.2 kmh S 5.0 mph8.0 kmh 30.19 in1022.4 mb 0.00 in0.0 mm 0.00 in0.0 mm 0.00 in0.0 mm
02:10 PM 35.9°F2.2°C 28.4°F-2.0°C 74% 7.0 mph SW11.3 kmh SW 7.0 mph11.3 kmh 30.18 in1022.0 mb 0.00 in0.0 mm 0.00 in0.0 mm 0.00 in0.0 mm
02:14 PM 35.9°F2.2°C 28.1°F-2.2°C 73% 7.0 mph S11.3 kmh S 7.0 mph11.3 kmh 30.18 in1022.0 mb 0.00 in0.0 mm 0.00 in0.0 mm 0.00 in0.0 mm
02:20 PM 36.0°F2.2°C 28.5°F-1.9°C 74% 1.0 mph S1.6 kmh S 4.0 mph6.4 kmh 30.18 in1022.0 mb 0.00 in0.0 mm 0.00 in0.0 mm 0.00 in0.0 mm
02:25 PM 35.9°F2.2°C 28.1°F-2.2°C 73% 2.0 mph SW3.2 kmh SW 6.0 mph9.7 kmh 30.18 in1022.0 mb 0.00 in0.0 mm 0.00 in0.0 mm 0.00 in0.0 mm
02:30 PM 36.0°F2.2°C 28.5°F-1.9°C 74% 2.0 mph SSE3.2 kmh SSE 8.0 mph12.9 kmh 30.17 in1021.7 mb 0.00 in0.0 mm 0.00 in0.0 mm 0.00 in0.0 mm
02:35 PM 36.3°F2.4°C 28.5°F-1.9°C 73% 7.0 mph SW11.3 kmh SW 7.0 mph11.3 kmh 30.17 in1021.7 mb 0.00 in0.0 mm 0.00 in0.0 mm 0.00 in0.0 mm
02:40 PM 36.2°F2.3°C 28.1°F-2.2°C 72% 3.0 mph SW4.8 kmh SW 6.0 mph9.7 kmh 30.17 in1021.7 mb 0.00 in0.0 mm 0.00 in0.0 mm 0.00 in0.0 mm
02:45 PM 36.2°F2.3°C 28.1°F-2.2°C 72% 4.0 mph S6.4 kmh S 8.0 mph12.9 kmh 30.17 in1021.7 mb 0.00 in0.0 mm 0.00 in0.0 mm 0.00 in0.0 mm
02:49 PM 36.5°F2.5°C 28.7°F-1.8°C 73% 3.0 mph SSE4.8 kmh SSE 6.0 mph9.7 kmh 30.17 in1021.7 mb 0.00 in0.0 mm 0.00 in0.0 mm 0.00 in0.0 mm
02:55 PM 36.7°F2.6°C 28.5°F-1.9°C 72% 7.0 mph SSW11.3 kmh SSW 10.0 mph16.1 kmh 30.17 in1021.7 mb 0.00 in0.0 mm 0.00 in0.0 mm 0.00 in0.0 mm
03:00 PM 36.7°F2.6°C 28.2°F-2.1°C 71% 5.0 mph S8.0 kmh S 8.0 mph12.9 kmh 30.16 in1021.3 mb 0.00 in0.0 mm 0.00 in0.0 mm 0.00 in0.0 mm
03:04 PM 36.7°F2.6°C 28.2°F-2.1°C 71% 4.0 mph SSE6.4 kmh SSE 9.0 mph14.5 kmh 30.16 in1021.3 mb 0.00 in0.0 mm 0.00 in0.0 mm 0.00 in0.0 mm
03:10 PM 36.9°F2.7°C 28.7°F-1.8°C 72% 5.0 mph SSW8.0 kmh SSW 7.0 mph11.3 kmh 30.16 in1021.3 mb 0.00 in0.0 mm 0.00 in0.0 mm 0.00 in0.0 mm
03:14 PM 37.0°F2.8°C 28.1°F-2.2°C 70% 1.0 mph SSE1.6 kmh SSE 8.0 mph12.9 kmh 30.16 in1021.3 mb 0.00 in0.0 mm 0.00 in0.0 mm 0.00 in0.0 mm
03:20 PM 36.9°F2.7°C 28.4°F-2.0°C 71% 4.0 mph SSW6.4 kmh SSW 9.0 mph14.5 kmh 30.16 in1021.3 mb 0.00 in0.0 mm 0.00 in0.0 mm 0.00 in0.0 mm
03:25 PM 37.0°F2.8°C 28.1°F-2.2°C 70% 4.0 mph WSW6.4 kmh WSW 10.0 mph16.1 kmh 30.16 in1021.3 mb 0.00 in0.0 mm 0.00 in0.0 mm 0.00 in0.0 mm
03:29 PM 37.3°F2.9°C 28.1°F-2.2°C 69% 4.0 mph SW6.4 kmh SW 6.0 mph9.7 kmh 30.16 in1021.3 mb 0.00 in0.0 mm 0.00 in0.0 mm 0.00 in0.0 mm
03:35 PM 37.4°F3.0°C 28.2°F-2.1°C 69% 4.0 mph WSW6.4 kmh WSW 6.0 mph9.7 kmh 30.16 in1021.3 mb 0.00 in0.0 mm 0.00 in0.0 mm 0.00 in0.0 mm
03:40 PM 37.7°F3.2°C 28.5°F-1.9°C 69% 2.0 mph SW3.2 kmh SW 5.0 mph8.0 kmh 30.16 in1021.3 mb 0.00 in0.0 mm 0.00 in0.0 mm 0.00 in0.0 mm
03:45 PM 37.8°F3.2°C 28.6°F-1.9°C 69% 4.0 mph SW6.4 kmh SW 4.0 mph6.4 kmh 30.16 in1021.3 mb 0.00 in0.0 mm 0.00 in0.0 mm 0.00 in0.0 mm
03:49 PM 37.9°F3.3°C 28.3°F-2.1°C 68% 4.0 mph S6.4 kmh S 6.0 mph9.7 kmh 30.16 in1021.3 mb 0.00 in0.0 mm 0.00 in0.0 mm 0.00 in0.0 mm
03:55 PM 37.9°F3.3°C 28.3°F-2.1°C 68% 2.0 mph SW3.2 kmh SW 7.0 mph11.3 kmh 30.16 in1021.3 mb 0.00 in0.0 mm 0.00 in0.0 mm 0.00 in0.0 mm
04:00 PM 37.9°F3.3°C 28.3°F-2.1°C 68% 6.0 mph SSE9.7 kmh SSE 9.0 mph14.5 kmh 30.16 in1021.3 mb 0.00 in0.0 mm 0.00 in0.0 mm 0.00 in0.0 mm
04:05 PM 37.9°F3.3°C 28.3°F-2.1°C 68% 3.0 mph SSW4.8 kmh SSW 4.0 mph6.4 kmh 30.16 in1021.3 mb 0.00 in0.0 mm 0.00 in0.0 mm 0.00 in0.0 mm
04:09 PM 37.9°F3.3°C 27.9°F-2.3°C 67% 3.0 mph S4.8 kmh S 5.0 mph8.0 kmh 30.16 in1021.3 mb 0.00 in0.0 mm 0.00 in0.0 mm 0.00 in0.0 mm
04:15 PM 37.8°F3.2°C 28.2°F-2.1°C 68% 2.0 mph S3.2 kmh S 6.0 mph9.7 kmh 30.16 in1021.3 mb 0.00 in0.0 mm 0.00 in0.0 mm 0.00 in0.0 mm
04:20 PM 38.0°F3.3°C 28.0°F-2.2°C 67% 4.0 mph S6.4 kmh S 6.0 mph9.7 kmh 30.15 in1021.0 mb 0.00 in0.0 mm 0.00 in0.0 mm 0.00 in0.0 mm
04:25 PM 38.1°F3.4°C 28.1°F-2.2°C 67% 5.0 mph SSW8.0 kmh SSW 6.0 mph9.7 kmh 30.16 in1021.3 mb 0.00 in0.0 mm 0.00 in0.0 mm 0.00 in0.0 mm
04:30 PM 38.2°F3.4°C 27.9°F-2.3°C 66% 6.0 mph S9.7 kmh S 6.0 mph9.7 kmh 30.15 in1021.0 mb 0.00 in0.0 mm 0.00 in0.0 mm 0.00 in0.0 mm
04:35 PM 38.2°F3.4°C 27.5°F-2.5°C 65% 1.0 mph SSW1.6 kmh SSW 5.0 mph8.0 kmh 30.15 in1021.0 mb 0.00 in0.0 mm 0.00 in0.0 mm 0.00 in0.0 mm
04:40 PM 38.3°F3.5°C 28.0°F-2.2°C 66% 2.0 mph S3.2 kmh S 5.0 mph8.0 kmh 30.15 in1021.0 mb 0.00 in0.0 mm 0.00 in0.0 mm 0.00 in0.0 mm
04:45 PM 38.4°F3.6°C 28.1°F-2.2°C 66% 3.0 mph SW4.8 kmh SW 5.0 mph8.0 kmh 30.15 in1021.0 mb 0.00 in0.0 mm 0.00 in0.0 mm 0.00 in0.0 mm
04:50 PM 38.4°F3.6°C 28.1°F-2.2°C 66% 1.0 mph SW1.6 kmh SW 4.0 mph6.4 kmh 30.15 in1021.0 mb 0.00 in0.0 mm 0.00 in0.0 mm 0.00 in0.0 mm
04:55 PM 38.5°F3.6°C 28.1°F-2.2°C 66% Calm Calm 4.0 mph6.4 kmh 30.15 in1021.0 mb 0.00 in0.0 mm 0.00 in0.0 mm 0.00 in0.0 mm
05:00 PM 38.5°F3.6°C 28.1°F-2.2°C 66% 1.0 mph S1.6 kmh S 3.0 mph4.8 kmh 30.15 in1021.0 mb 0.00 in0.0 mm 0.00 in0.0 mm 0.00 in0.0 mm
05:05 PM 38.5°F3.6°C 28.5°F-1.9°C 67% 1.0 mph S1.6 kmh S 5.0 mph8.0 kmh 30.15 in1021.0 mb 0.00 in0.0 mm 0.00 in0.0 mm 0.00 in0.0 mm
05:10 PM 38.5°F3.6°C 28.5°F-1.9°C 67% 4.0 mph SW6.4 kmh SW 4.0 mph6.4 kmh 30.15 in1021.0 mb 0.00 in0.0 mm 0.00 in0.0 mm 0.00 in0.0 mm
05:15 PM 38.5°F3.6°C 28.1°F-2.2°C 66% 3.0 mph S4.8 kmh S 6.0 mph9.7 kmh 30.16 in1021.3 mb 0.00 in0.0 mm 0.00 in0.0 mm 0.00 in0.0 mm
05:20 PM 38.4°F3.6°C 28.1°F-2.2°C 66% 4.0 mph S6.4 kmh S 5.0 mph8.0 kmh 30.16 in1021.3 mb 0.00 in0.0 mm 0.00 in0.0 mm 0.00 in0.0 mm
05:25 PM 38.5°F3.6°C 28.1°F-2.2°C 66% 1.0 mph SSW1.6 kmh SSW 4.0 mph6.4 kmh 30.16 in1021.3 mb 0.00 in0.0 mm 0.00 in0.0 mm 0.00 in0.0 mm
05:30 PM 38.5°F3.6°C 28.5°F-1.9°C 67% 2.0 mph S3.2 kmh S 3.0 mph4.8 kmh 30.15 in1021.0 mb 0.00 in0.0 mm 0.00 in0.0 mm 0.00 in0.0 mm
05:35 PM 38.5°F3.6°C 28.5°F-1.9°C 67% 3.0 mph S4.8 kmh S 3.0 mph4.8 kmh 30.15 in1021.0 mb 0.00 in0.0 mm 0.00 in0.0 mm 0.00 in0.0 mm
05:39 PM 38.5°F3.6°C 28.5°F-1.9°C 67% 3.0 mph SSE4.8 kmh SSE 4.0 mph6.4 kmh 30.15 in1021.0 mb 0.00 in0.0 mm 0.00 in0.0 mm 0.00 in0.0 mm
05:45 PM 38.4°F3.6°C 28.4°F-2.0°C 67% Calm Calm 4.0 mph6.4 kmh 30.15 in1021.0 mb 0.00 in0.0 mm 0.00 in0.0 mm 0.00 in0.0 mm
05:49 PM 38.4°F3.6°C 28.4°F-2.0°C 67% Calm Calm 4.0 mph6.4 kmh 30.15 in1021.0 mb 0.00 in0.0 mm 0.00 in0.0 mm 0.00 in0.0 mm
05:55 PM 38.4°F3.6°C 28.4°F-2.0°C 67% 3.0 mph S4.8 kmh S 3.0 mph4.8 kmh 30.15 in1021.0 mb 0.00 in0.0 mm 0.00 in0.0 mm 0.00 in0.0 mm
06:00 PM 38.4°F3.6°C 28.4°F-2.0°C 67% Calm Calm 1.0 mph1.6 kmh 30.15 in1021.0 mb 0.00 in0.0 mm 0.00 in0.0 mm 0.00 in0.0 mm
06:05 PM 38.4°F3.6°C 28.4°F-2.0°C 67% 3.0 mph S4.8 kmh S 3.0 mph4.8 kmh 30.15 in1021.0 mb 0.00 in0.0 mm 0.00 in0.0 mm 0.00 in0.0 mm
06:10 PM 38.4°F3.6°C 28.4°F-2.0°C 67% Calm Calm 3.0 mph4.8 kmh 30.15 in1021.0 mb 0.00 in0.0 mm 0.00 in0.0 mm 0.00 in0.0 mm
06:14 PM 38.3°F3.5°C 28.3°F-2.1°C 67% 1.0 mph S1.6 kmh S 4.0 mph6.4 kmh 30.15 in1021.0 mb 0.00 in0.0 mm 0.00 in0.0 mm 0.00 in0.0 mm
06:20 PM 38.2°F3.4°C 28.2°F-2.1°C 67% Calm Calm -- 30.15 in1021.0 mb 0.00 in0.0 mm 0.00 in0.0 mm 0.00 in0.0 mm
06:25 PM 38.1°F3.4°C 28.5°F-1.9°C 68% Calm Calm -- 30.14 in1020.7 mb 0.00 in0.0 mm 0.00 in0.0 mm 0.00 in0.0 mm
06:30 PM 38.0°F3.3°C 28.4°F-2.0°C 68% Calm Calm -- 30.15 in1021.0 mb 0.00 in0.0 mm 0.00 in0.0 mm 0.00 in0.0 mm
06:35 PM 37.8°F3.2°C 28.6°F-1.9°C 69% Calm Calm -- 30.15 in1021.0 mb 0.00 in0.0 mm 0.00 in0.0 mm 0.00 in0.0 mm
06:40 PM 37.6°F3.1°C 28.7°F-1.8°C 70% Calm Calm -- 30.15 in1021.0 mb 0.00 in0.0 mm 0.00 in0.0 mm 0.00 in0.0 mm
06:45 PM 37.5°F3.1°C 28.6°F-1.9°C 70% Calm Calm -- 30.15 in1021.0 mb 0.00 in0.0 mm 0.00 in0.0 mm 0.00 in0.0 mm
06:49 PM 37.3°F2.9°C 28.4°F-2.0°C 70% Calm Calm -- 30.15 in1021.0 mb 0.00 in0.0 mm 0.00 in0.0 mm 0.00 in0.0 mm
06:55 PM 37.1°F2.8°C 28.6°F-1.9°C 71% Calm Calm -- 30.14 in1020.7 mb 0.00 in0.0 mm 0.00 in0.0 mm 0.00 in0.0 mm
07:00 PM 37.0°F2.8°C 28.8°F-1.8°C 72% Calm Calm -- 30.14 in1020.7 mb 0.00 in0.0 mm 0.00 in0.0 mm 0.00 in0.0 mm
07:04 PM 36.8°F2.7°C 29.0°F-1.7°C 73% Calm Calm -- 30.15 in1021.0 mb 0.00 in0.0 mm 0.00 in0.0 mm 0.00 in0.0 mm
07:10 PM 36.6°F2.6°C 28.8°F-1.8°C 73% Calm Calm -- 30.15 in1021.0 mb 0.00 in0.0 mm 0.00 in0.0 mm 0.00 in0.0 mm
07:15 PM 36.5°F2.5°C 29.0°F-1.7°C 74% Calm Calm -- 30.16 in1021.3 mb 0.00 in0.0 mm 0.00 in0.0 mm 0.00 in0.0 mm
07:20 PM 36.4°F2.4°C 28.9°F-1.7°C 74% Calm Calm -- 30.15 in1021.0 mb 0.00 in0.0 mm 0.00 in0.0 mm 0.00 in0.0 mm
07:25 PM 36.2°F2.3°C 29.1°F-1.6°C 75% Calm Calm 2.0 mph3.2 kmh 30.15 in1021.0 mb 0.00 in0.0 mm 0.00 in0.0 mm 0.00 in0.0 mm
07:30 PM 36.2°F2.3°C 29.1°F-1.6°C 75% 1.0 mph S1.6 kmh S 4.0 mph6.4 kmh 30.15 in1021.0 mb 0.00 in0.0 mm 0.00 in0.0 mm 0.00 in0.0 mm
07:35 PM 36.4°F2.4°C 29.3°F-1.5°C 75% 2.0 mph SSE3.2 kmh SSE 5.0 mph8.0 kmh 30.15 in1021.0 mb 0.00 in0.0 mm 0.00 in0.0 mm 0.00 in0.0 mm
07:40 PM 36.5°F2.5°C 29.0°F-1.7°C 74% 2.0 mph SSE3.2 kmh SSE 4.0 mph6.4 kmh 30.15 in1021.0 mb 0.00 in0.0 mm 0.00 in0.0 mm 0.00 in0.0 mm
07:45 PM 36.6°F2.6°C 29.1°F-1.6°C 74% 1.0 mph SSE1.6 kmh SSE 5.0 mph8.0 kmh 30.14 in1020.7 mb 0.00 in0.0 mm 0.00 in0.0 mm 0.00 in0.0 mm
07:50 PM 36.6°F2.6°C 29.1°F-1.6°C 74% Calm Calm 3.0 mph4.8 kmh 30.15 in1021.0 mb 0.00 in0.0 mm 0.00 in0.0 mm 0.00 in0.0 mm
07:55 PM 36.6°F2.6°C 29.1°F-1.6°C 74% Calm Calm 2.0 mph3.2 kmh 30.14 in1020.7 mb 0.00 in0.0 mm 0.00 in0.0 mm 0.00 in0.0 mm
08:00 PM 36.5°F2.5°C 29.0°F-1.7°C 74% 1.0 mph SSE1.6 kmh SSE 1.0 mph1.6 kmh 30.14 in1020.7 mb 0.00 in0.0 mm 0.00 in0.0 mm 0.00 in0.0 mm
08:05 PM 36.4°F2.4°C 28.9°F-1.7°C 74% 1.0 mph SE1.6 kmh SE 4.0 mph6.4 kmh 30.14 in1020.7 mb 0.00 in0.0 mm 0.00 in0.0 mm 0.00 in0.0 mm
08:10 PM 36.4°F2.4°C 28.9°F-1.7°C 74% Calm Calm 1.0 mph1.6 kmh 30.15 in1021.0 mb 0.00 in0.0 mm 0.00 in0.0 mm 0.00 in0.0 mm
08:15 PM 36.4°F2.4°C 29.3°F-1.5°C 75% Calm Calm -- 30.15 in1021.0 mb 0.00 in0.0 mm 0.00 in0.0 mm 0.00 in0.0 mm
08:20 PM 36.3°F2.4°C 29.2°F-1.6°C 75% Calm Calm 2.0 mph3.2 kmh 30.15 in1021.0 mb 0.00 in0.0 mm 0.00 in0.0 mm 0.00 in0.0 mm
08:25 PM 36.4°F2.4°C 29.3°F-1.5°C 75% Calm Calm 2.0 mph3.2 kmh 30.14 in1020.7 mb 0.00 in0.0 mm 0.00 in0.0 mm 0.00 in0.0 mm
08:30 PM 36.4°F2.4°C 29.3°F-1.5°C 75% Calm Calm 2.0 mph3.2 kmh 30.14 in1020.7 mb 0.00 in0.0 mm 0.00 in0.0 mm 0.00 in0.0 mm
08:34 PM 36.3°F2.4°C 29.2°F-1.6°C 75% Calm Calm 2.0 mph3.2 kmh 30.15 in1021.0 mb 0.00 in0.0 mm 0.00 in0.0 mm 0.00 in0.0 mm
08:40 PM 36.4°F2.4°C 29.3°F-1.5°C 75% Calm Calm 2.0 mph3.2 kmh 30.15 in1021.0 mb 0.00 in0.0 mm 0.00 in0.0 mm 0.00 in0.0 mm
08:45 PM 36.5°F2.5°C 29.7°F-1.3°C 76% 1.0 mph SSE1.6 kmh SSE 4.0 mph6.4 kmh 30.14 in1020.7 mb 0.00 in0.0 mm 0.00 in0.0 mm 0.00 in0.0 mm
08:49 PM 36.5°F2.5°C 29.3°F-1.5°C 75% Calm Calm 2.0 mph3.2 kmh 30.13 in1020.3 mb 0.00 in0.0 mm 0.00 in0.0 mm 0.00 in0.0 mm
08:55 PM 36.4°F2.4°C 29.6°F-1.3°C 76% 1.0 mph SSE1.6 kmh SSE 4.0 mph6.4 kmh 30.14 in1020.7 mb 0.00 in0.0 mm 0.00 in0.0 mm 0.00 in0.0 mm
09:00 PM 36.5°F2.5°C 29.7°F-1.3°C 76% Calm Calm 4.0 mph6.4 kmh 30.14 in1020.7 mb 0.00 in0.0 mm 0.00 in0.0 mm 0.00 in0.0 mm
09:05 PM 36.5°F2.5°C 29.7°F-1.3°C 76% Calm Calm 4.0 mph6.4 kmh 30.13 in1020.3 mb 0.00 in0.0 mm 0.00 in0.0 mm 0.00 in0.0 mm
09:10 PM 36.5°F2.5°C 29.7°F-1.3°C 76% Calm Calm 1.0 mph1.6 kmh 30.13 in1020.3 mb 0.00 in0.0 mm 0.00 in0.0 mm 0.00 in0.0 mm
09:15 PM 36.5°F2.5°C 30.0°F-1.1°C 77% Calm Calm 1.0 mph1.6 kmh 30.13 in1020.3 mb 0.00 in0.0 mm 0.00 in0.0 mm 0.00 in0.0 mm
09:20 PM 36.4°F2.4°C 29.9°F-1.2°C 77% Calm Calm 2.0 mph3.2 kmh 30.13 in1020.3 mb 0.00 in0.0 mm 0.00 in0.0 mm 0.00 in0.0 mm
09:25 PM 36.4°F2.4°C 29.9°F-1.2°C 77% Calm Calm 4.0 mph6.4 kmh 30.13 in1020.3 mb 0.00 in0.0 mm 0.00 in0.0 mm 0.00 in0.0 mm
09:29 PM 36.4°F2.4°C 30.2°F-1.0°C 78% Calm Calm 1.0 mph1.6 kmh 30.13 in1020.3 mb 0.00 in0.0 mm 0.00 in0.0 mm 0.00 in0.0 mm
09:35 PM 36.4°F2.4°C 30.2°F-1.0°C 78% Calm Calm 1.0 mph1.6 kmh 30.13 in1020.3 mb 0.00 in0.0 mm 0.00 in0.0 mm 0.00 in0.0 mm
09:40 PM 36.4°F2.4°C 30.2°F-1.0°C 78% Calm Calm 3.0 mph4.8 kmh 30.13 in1020.3 mb 0.00 in0.0 mm 0.00 in0.0 mm 0.00 in0.0 mm
09:45 PM 36.4°F2.4°C 30.2°F-1.0°C 78% 1.0 mph S1.6 kmh S 1.0 mph1.6 kmh 30.13 in1020.3 mb 0.00 in0.0 mm 0.00 in0.0 mm 0.00 in0.0 mm
09:50 PM 36.4°F2.4°C 30.5°F-0.8°C 79% Calm Calm 1.0 mph1.6 kmh 30.13 in1020.3 mb 0.00 in0.0 mm 0.00 in0.0 mm 0.00 in0.0 mm
09:55 PM 36.4°F2.4°C 30.5°F-0.8°C 79% Calm Calm 1.0 mph1.6 kmh 30.12 in1020.0 mb 0.00 in0.0 mm 0.00 in0.0 mm 0.00 in0.0 mm
10:00 PM 36.4°F2.4°C 30.5°F-0.8°C 79% Calm Calm 1.0 mph1.6 kmh 30.13 in1020.3 mb 0.00 in0.0 mm 0.00 in0.0 mm 0.00 in0.0 mm
10:05 PM 36.4°F2.4°C 30.5°F-0.8°C 79% Calm Calm -- 30.12 in1020.0 mb 0.00 in0.0 mm 0.00 in0.0 mm 0.00 in0.0 mm
10:10 PM 36.4°F2.4°C 30.5°F-0.8°C 79% Calm Calm 3.0 mph4.8 kmh 30.11 in1019.6 mb 0.00 in0.0 mm 0.00 in0.0 mm 0.00 in0.0 mm
10:15 PM 36.5°F2.5°C 30.6°F-0.8°C 79% 1.0 mph SE1.6 kmh SE 4.0 mph6.4 kmh 30.11 in1019.6 mb 0.00 in0.0 mm 0.00 in0.0 mm 0.00 in0.0 mm
10:20 PM 36.6°F2.6°C 30.4°F-0.9°C 78% Calm Calm 2.0 mph3.2 kmh 30.11 in1019.6 mb 0.00 in0.0 mm 0.00 in0.0 mm 0.00 in0.0 mm
10:25 PM 36.8°F2.7°C 30.6°F-0.8°C 78% 1.0 mph SE1.6 kmh SE 2.0 mph3.2 kmh 30.12 in1020.0 mb 0.00 in0.0 mm 0.00 in0.0 mm 0.00 in0.0 mm
10:30 PM 37.0°F2.8°C 30.8°F-0.7°C 78% 1.0 mph S1.6 kmh S 5.0 mph8.0 kmh 30.11 in1019.6 mb 0.00 in0.0 mm 0.00 in0.0 mm 0.00 in0.0 mm
10:35 PM 37.2°F2.9°C 30.7°F-0.7°C 77% 1.0 mph SSE1.6 kmh SSE 4.0 mph6.4 kmh 30.12 in1020.0 mb 0.00 in0.0 mm 0.00 in0.0 mm 0.00 in0.0 mm
10:40 PM 37.3°F2.9°C 30.8°F-0.7°C 77% Calm Calm 2.0 mph3.2 kmh 30.12 in1020.0 mb 0.00 in0.0 mm 0.00 in0.0 mm 0.00 in0.0 mm
10:44 PM 37.3°F2.9°C 30.8°F-0.7°C 77% 1.0 mph SSE1.6 kmh SSE 2.0 mph3.2 kmh 30.12 in1020.0 mb 0.00 in0.0 mm 0.00 in0.0 mm 0.00 in0.0 mm
10:49 PM 37.4°F3.0°C 30.9°F-0.6°C 77% Calm Calm 1.0 mph1.6 kmh 30.12 in1020.0 mb 0.00 in0.0 mm 0.00 in0.0 mm 0.00 in0.0 mm
10:55 PM 37.3°F2.9°C 30.8°F-0.7°C 77% 1.0 mph SSE1.6 kmh SSE 2.0 mph3.2 kmh 30.12 in1020.0 mb 0.00 in0.0 mm 0.00 in0.0 mm 0.00 in0.0 mm
11:00 PM 37.4°F3.0°C 30.9°F-0.6°C 77% Calm Calm 4.0 mph6.4 kmh 30.11 in1019.6 mb 0.00 in0.0 mm 0.00 in0.0 mm 0.00 in0.0 mm
11:04 PM 37.4°F3.0°C 30.9°F-0.6°C 77% 6.0 mph SSE9.7 kmh SSE 6.0 mph9.7 kmh 30.12 in1020.0 mb 0.00 in0.0 mm 0.00 in0.0 mm 0.00 in0.0 mm
11:10 PM 37.5°F3.1°C 31.0°F-0.6°C 77% 5.0 mph SSE8.0 kmh SSE 5.0 mph8.0 kmh 30.12 in1020.0 mb 0.00 in0.0 mm 0.00 in0.0 mm 0.00 in0.0 mm
11:15 PM 37.5°F3.1°C 31.0°F-0.6°C 77% 1.0 mph SSE1.6 kmh SSE 4.0 mph6.4 kmh 30.12 in1020.0 mb 0.00 in0.0 mm 0.00 in0.0 mm 0.00 in0.0 mm
11:20 PM 37.5°F3.1°C 31.0°F-0.6°C 77% 2.0 mph S3.2 kmh S 6.0 mph9.7 kmh 30.12 in1020.0 mb 0.00 in0.0 mm 0.00 in0.0 mm 0.00 in0.0 mm
11:25 PM 37.5°F3.1°C 31.0°F-0.6°C 77% 1.0 mph S1.6 kmh S 5.0 mph8.0 kmh 30.12 in1020.0 mb 0.00 in0.0 mm 0.00 in0.0 mm 0.00 in0.0 mm
11:30 PM 37.5°F3.1°C 31.0°F-0.6°C 77% 2.0 mph SSE3.2 kmh SSE 9.0 mph14.5 kmh 30.11 in1019.6 mb 0.00 in0.0 mm 0.00 in0.0 mm 0.00 in0.0 mm
11:35 PM 37.7°F3.2°C 31.2°F-0.4°C 77% 3.0 mph S4.8 kmh S 9.0 mph14.5 kmh 30.11 in1019.6 mb 0.00 in0.0 mm 0.00 in0.0 mm 0.00 in0.0 mm
11:40 PM 37.8°F3.2°C 31.3°F-0.4°C 77% 1.0 mph SW1.6 kmh SW 6.0 mph9.7 kmh 30.11 in1019.6 mb 0.00 in0.0 mm 0.00 in0.0 mm 0.00 in0.0 mm
11:44 PM 37.8°F3.2°C 31.3°F-0.4°C 77% 4.0 mph S6.4 kmh S 5.0 mph8.0 kmh 30.11 in1019.6 mb 0.00 in0.0 mm 0.00 in0.0 mm 0.00 in0.0 mm
11:50 PM 37.9°F3.3°C 31.4°F-0.3°C 77% 1.0 mph SSE1.6 kmh SSE 5.0 mph8.0 kmh 30.11 in1019.6 mb 0.00 in0.0 mm 0.00 in0.0 mm 0.00 in0.0 mm
11:55 PM 38.2°F3.4°C 31.6°F-0.2°C 77% 3.0 mph SE4.8 kmh SE 5.0 mph8.0 kmh 30.11 in1019.6 mb 0.00 in0.0 mm 0.00 in0.0 mm 0.00 in0.0 mm